createdAt,value
2018-12-13T16:38:01.076Z,-64
2018-12-13T16:39:02.455Z,-70
2018-12-13T16:40:02.843Z,-66
2018-12-13T16:41:06.482Z,-68
2018-12-13T16:42:11.108Z,-66
2018-12-13T16:43:19.970Z,-68
2018-12-13T16:44:28.023Z,-63
2018-12-13T16:45:28.648Z,-67
2018-12-13T16:46:34.489Z,-67
2018-12-13T16:47:39.385Z,-67
2018-12-13T16:48:43.031Z,-70
2018-12-13T16:49:49.474Z,-74
2018-12-13T16:50:58.209Z,-67
2018-12-13T16:52:01.321Z,-65
2018-12-13T16:53:09.426Z,-67
2018-12-13T16:54:14.191Z,-74
2018-12-13T16:55:15.104Z,-74
2018-12-13T16:56:21.932Z,-72
2018-12-13T16:57:26.943Z,-76
2018-12-13T16:58:28.903Z,-67
2018-12-13T16:59:34.212Z,-65
2018-12-13T17:00:40.199Z,-70
2018-12-13T17:01:48.593Z,-70
2018-12-13T17:02:54.186Z,-59
2018-12-13T17:03:55.968Z,-67
2018-12-13T17:05:03.517Z,-66
2018-12-13T17:06:03.556Z,-65
2018-12-13T17:07:08.251Z,-65
2018-12-13T17:08:12.093Z,-65
2018-12-13T17:09:14.259Z,-66
2018-12-13T17:10:22.375Z,-65
2018-12-13T17:11:27.348Z,-65
2018-12-13T17:12:37.931Z,-65
2018-12-13T17:13:46.190Z,-65
2018-12-13T17:14:50.160Z,-64
2018-12-13T17:16:00.320Z,-64
2018-12-13T17:17:08.737Z,-68
2018-12-13T17:18:13.017Z,-71
2018-12-13T17:19:16.168Z,-70
2018-12-13T17:20:24.933Z,-65
2018-12-13T17:21:32.243Z,-65
2018-12-13T17:22:35.335Z,-65
2018-12-13T17:23:38.135Z,-66
2018-12-13T17:24:45.256Z,-65
2018-12-13T17:25:47.153Z,-66
2018-12-13T17:27:00.330Z,-62
2018-12-13T17:28:04.119Z,-63
2018-12-13T17:29:06.678Z,-64
2018-12-13T17:30:14.422Z,-65
2018-12-13T17:31:15.993Z,-63
2018-12-13T17:32:21.896Z,-62
2018-12-13T17:33:27.428Z,-64
2018-12-13T17:34:31.933Z,-63
2018-12-13T17:35:33.820Z,-63
2018-12-13T17:36:45.782Z,-64
2018-12-13T17:37:51.789Z,-65
2018-12-13T17:38:58.641Z,-60
2018-12-13T17:40:09.552Z,-58
2018-12-13T17:41:13.577Z,-60
2018-12-13T17:42:20.718Z,-59
2018-12-13T17:43:25.616Z,-63
2018-12-13T17:44:29.330Z,-62
2018-12-13T17:45:35.527Z,-66
2018-12-13T17:46:46.729Z,-63
2018-12-13T17:47:52.217Z,-62
2018-12-13T17:48:54.784Z,-62
2018-12-13T17:49:56.588Z,-64
2018-12-13T17:50:58.591Z,-64
2018-12-13T17:52:01.959Z,-64
2018-12-13T17:53:05.433Z,-64
2018-12-13T17:54:08.490Z,-63
2018-12-13T17:55:10.557Z,-61
2018-12-13T17:56:13.114Z,-63
2018-12-13T17:57:20.997Z,-65
2018-12-13T17:58:22.943Z,-65
2018-12-13T17:59:24.638Z,-66
2018-12-13T18:00:26.772Z,-65
2018-12-13T18:01:30.513Z,-65
2018-12-13T18:02:42.288Z,-66
2018-12-13T18:03:55.439Z,-65
2018-12-13T18:04:57.194Z,-61
2018-12-13T18:06:06.639Z,-64
2018-12-13T18:07:08.836Z,-64
2018-12-13T18:08:12.354Z,-62
2018-12-13T18:09:16.241Z,-63
2018-12-13T18:10:20.907Z,-63
2018-12-13T18:11:22.793Z,-61
2018-12-13T18:12:27.897Z,-64
2018-12-13T18:13:29.645Z,-60
2018-12-13T18:14:32.132Z,-62
2018-12-13T18:15:36.643Z,-60
2018-12-13T18:16:43.404Z,-64
2018-12-13T18:17:45.857Z,-64
2018-12-13T18:18:48.009Z,-66
2018-12-13T18:19:50.354Z,-67
2018-12-13T18:21:02.376Z,-67
2018-12-13T18:22:05.746Z,-64
2018-12-13T18:23:16.841Z,-64
2018-12-13T18:24:30.149Z,-61
2018-12-13T18:25:31.838Z,-62
2018-12-13T18:26:34.139Z,-65
2018-12-13T18:27:39.794Z,-61
2018-12-13T18:28:41.834Z,-66
2018-12-13T18:29:43.869Z,-66
2018-12-13T18:30:49.192Z,-61
2018-12-13T18:31:51.962Z,-64
2018-12-13T18:32:55.376Z,-65
2018-12-13T18:33:57.973Z,-62
2018-12-13T18:34:59.804Z,-63
2018-12-13T18:36:02.078Z,-63
2018-12-13T18:37:05.553Z,-63
2018-12-13T18:38:08.837Z,-63
2018-12-13T18:39:11.029Z,-64
2018-12-13T18:40:13.025Z,-64
2018-12-13T18:41:26.114Z,-64
2018-12-13T18:42:30.136Z,-71
2018-12-13T18:43:36.320Z,-65
2018-12-13T18:44:38.489Z,-64
2018-12-13T18:45:43.958Z,-66
2018-12-13T18:46:50.260Z,-66
2018-12-13T18:47:53.203Z,-66
2018-12-13T18:48:57.406Z,-68
2018-12-13T18:50:00.393Z,-67
2018-12-13T18:51:06.622Z,-69
2018-12-13T18:52:19.141Z,-64
2018-12-13T18:53:21.842Z,-62
2018-12-13T18:54:23.896Z,-60
2018-12-13T18:55:26.230Z,-67
2018-12-13T18:56:29.793Z,-62
2018-12-13T18:57:42.587Z,-64
2018-12-13T18:58:46.924Z,-64
2018-12-13T18:59:52.910Z,-65
2018-12-13T19:00:57.238Z,-68
2018-12-13T19:01:59.929Z,-66
2018-12-13T19:03:07.541Z,-68
2018-12-13T19:04:08.987Z,-69
2018-12-13T19:05:13.570Z,-67
2018-12-13T19:06:16.442Z,-68
2018-12-13T19:08:47.184Z,-70
2018-12-13T19:11:22.260Z,-67
2018-12-13T19:12:21.095Z,-66
2018-12-13T19:13:18.620Z,-64
2018-12-13T19:14:17.633Z,-68
2018-12-13T19:15:15.600Z,-57
2018-12-13T19:16:13.074Z,-65
2018-12-13T19:17:10.625Z,-64
2018-12-13T19:18:12.256Z,-67
2018-12-13T19:19:11.881Z,-65
2018-12-13T19:20:11.171Z,-68
2018-12-13T19:21:16.303Z,-67
2018-12-13T19:22:13.160Z,-67
2018-12-13T19:23:09.819Z,-65
2018-12-13T19:24:07.105Z,-65
2018-12-13T19:25:06.423Z,-64
2018-12-13T19:26:07.376Z,-64
2018-12-13T19:27:11.501Z,-62
2018-12-13T19:28:14.262Z,-60
2018-12-13T19:29:12.842Z,-61
2018-12-13T19:30:12.601Z,-62
2018-12-13T19:31:16.300Z,-62
2018-12-13T19:32:19.531Z,-63
2018-12-13T19:33:19.494Z,-60
2018-12-13T19:34:23.289Z,-66
2018-12-13T19:35:20.652Z,-67
2018-12-13T19:36:20.428Z,-68
2018-12-13T19:37:17.551Z,-63
2018-12-13T19:38:16.554Z,-64
2018-12-13T19:39:14.848Z,-64
2018-12-13T19:40:14.518Z,-65
2018-12-13T19:41:12.532Z,-66
2018-12-13T19:42:14.636Z,-64
2018-12-13T19:43:18.649Z,-67
2018-12-13T19:44:16.169Z,-62
2018-12-13T19:45:12.991Z,-62
2018-12-13T19:46:10.278Z,-65
2018-12-13T19:47:10.896Z,-65
2018-12-13T19:48:07.760Z,-66
2018-12-13T19:49:06.967Z,-64
2018-12-13T19:50:07.082Z,-60
2018-12-13T19:51:06.161Z,-60
2018-12-13T19:52:05.325Z,-64
2018-12-13T19:53:05.810Z,-65
2018-12-13T19:54:05.232Z,-69
2018-12-13T19:55:05.595Z,-73
2018-12-13T19:56:05.542Z,-66
2018-12-13T19:57:02.325Z,-70
2018-12-13T19:57:59.230Z,-72
2018-12-13T19:58:57.185Z,-66
2018-12-13T20:00:01.534Z,-70
2018-12-13T20:01:02.275Z,-74
2018-12-13T20:02:04.259Z,-64
2018-12-13T20:03:03.310Z,-66
2018-12-13T20:04:01.524Z,-72
2018-12-13T20:04:58.750Z,-74
2018-12-13T20:06:06.116Z,-71
2018-12-13T20:07:03.961Z,-73
2018-12-13T20:08:01.554Z,-74
2018-12-13T20:08:58.183Z,-73
2018-12-13T20:09:57.220Z,-73
2018-12-13T20:10:55.483Z,-71
2018-12-13T20:11:53.201Z,-76
2018-12-13T20:12:50.071Z,-72
2018-12-13T20:13:47.774Z,-79
2018-12-13T20:14:45.112Z,-65
2018-12-13T20:15:46.848Z,-70
2018-12-13T20:16:46.291Z,-70
2018-12-13T20:17:46.687Z,-76
2018-12-13T20:18:48.532Z,-70
2018-12-13T20:19:50.059Z,-65
2018-12-13T20:20:51.151Z,-65
2018-12-13T20:22:03.718Z,-66
2018-12-13T20:23:01.167Z,-65
2018-12-13T20:24:00.412Z,-64
2018-12-13T20:24:59.180Z,-63
2018-12-13T20:25:56.913Z,-65
2018-12-13T20:26:59.312Z,-66
2018-12-13T20:27:56.556Z,-68
2018-12-13T20:28:57.226Z,-65
2018-12-13T20:30:02.385Z,-70
2018-12-13T20:30:59.688Z,-67
2018-12-13T20:32:00.945Z,-64
2018-12-13T20:32:58.312Z,-66
2018-12-13T20:33:56.592Z,-70
2018-12-13T20:34:54.194Z,-67
2018-12-13T20:35:53.429Z,-71
2018-12-13T20:36:55.547Z,-69
2018-12-13T20:37:53.467Z,-65
2018-12-13T20:38:51.304Z,-62
2018-12-13T20:39:49.482Z,-64
2018-12-13T20:40:48.286Z,-57
2018-12-13T20:41:49.295Z,-61
2018-12-13T20:42:49.145Z,-68
2018-12-13T20:43:47.725Z,-65
2018-12-13T20:44:46.405Z,-65
2018-12-13T20:45:47.791Z,-64
2018-12-13T20:46:50.254Z,-66
2018-12-13T20:47:47.236Z,-63
2018-12-13T20:48:44.762Z,-59
2018-12-13T20:49:41.960Z,-63
2018-12-13T20:50:39.932Z,-62
2018-12-13T20:51:36.796Z,-59
2018-12-13T20:52:34.228Z,-58
2018-12-13T20:53:33.053Z,-55
2018-12-13T20:54:47.366Z,-54
2018-12-13T20:55:58.238Z,-58
2018-12-13T20:56:55.632Z,-56
2018-12-13T20:57:56.206Z,-56
2018-12-13T20:58:53.341Z,-57
2018-12-13T20:59:53.672Z,-61
2018-12-13T21:00:58.351Z,-62
2018-12-13T21:01:56.469Z,-60
2018-12-13T21:02:59.949Z,-62
2018-12-13T21:03:56.991Z,-63
2018-12-13T21:05:03.086Z,-63
2018-12-13T21:06:05.817Z,-60
2018-12-13T21:07:07.722Z,-62
2018-12-13T21:08:05.251Z,-61
2018-12-13T21:09:02.309Z,-61
2018-12-13T21:10:01.544Z,-62
2018-12-13T21:10:59.788Z,-62
2018-12-13T21:11:56.460Z,-62
2018-12-13T21:12:54.667Z,-61
2018-12-13T21:13:52.367Z,-64
2018-12-13T21:14:50.793Z,-64
2018-12-13T21:15:49.094Z,-64
2018-12-13T21:16:49.553Z,-63
2018-12-13T21:17:46.746Z,-64
2018-12-13T21:18:45.041Z,-62
2018-12-13T21:19:49.603Z,-63
2018-12-13T21:20:55.301Z,-62
2018-12-13T21:22:02.101Z,-65
2018-12-13T21:23:03.442Z,-61
2018-12-13T21:24:01.360Z,-63
2018-12-13T21:25:00.974Z,-62
2018-12-13T21:26:02.181Z,-60
2018-12-13T21:27:04.098Z,-62
2018-12-13T21:28:01.420Z,-61
2018-12-13T21:29:00.204Z,-64
2018-12-13T21:30:00.077Z,-62
2018-12-13T21:30:57.787Z,-63
2018-12-13T21:32:04.724Z,-62
2018-12-13T21:33:05.858Z,-63
2018-12-13T21:34:04.458Z,-63
2018-12-13T21:35:02.204Z,-61
2018-12-13T21:36:01.341Z,-62
2018-12-13T21:37:00.347Z,-61
2018-12-13T21:37:57.699Z,-61
2018-12-13T21:39:00.700Z,-61
2018-12-13T21:39:57.222Z,-61
2018-12-13T21:40:55.885Z,-61
2018-12-13T21:42:03.657Z,-61
2018-12-13T21:43:01.048Z,-61
2018-12-13T21:44:01.508Z,-61
2018-12-13T21:45:01.848Z,-61
2018-12-13T21:46:01.845Z,-61
2018-12-13T21:47:02.602Z,-61
2018-12-13T21:48:10.204Z,-61
2018-12-13T21:49:11.990Z,-61
2018-12-13T21:50:21.815Z,-60
2018-12-13T21:51:19.221Z,-61
2018-12-13T21:52:26.321Z,-62
2018-12-13T21:53:25.614Z,-64
2018-12-13T21:54:22.697Z,-64
2018-12-13T21:55:26.362Z,-62
2018-12-13T21:56:24.479Z,-63
2018-12-13T21:57:21.108Z,-62
2018-12-13T21:58:22.016Z,-62
2018-12-13T21:59:19.325Z,-61
2018-12-13T22:00:17.481Z,-62
2018-12-13T22:01:14.146Z,-62
2018-12-13T22:02:15.078Z,-60
2018-12-13T22:03:12.872Z,-62
2018-12-13T22:04:10.205Z,-61
2018-12-13T22:05:09.839Z,-61
2018-12-13T22:06:11.073Z,-61
2018-12-13T22:07:10.479Z,-61
2018-12-13T22:08:08.113Z,-61
2018-12-13T22:09:08.303Z,-61
2018-12-13T22:10:08.152Z,-61
2018-12-13T22:11:05.043Z,-62
2018-12-13T22:12:02.505Z,-61
2018-12-13T22:13:03.456Z,-62
2018-12-13T22:14:00.232Z,-61
2018-12-13T22:15:02.649Z,-62
2018-12-13T22:16:01.284Z,-62
2018-12-13T22:17:01.077Z,-61
2018-12-13T22:17:58.283Z,-62
2018-12-13T22:18:56.879Z,-61
2018-12-13T22:19:56.497Z,-61
2018-12-13T22:20:53.164Z,-61
2018-12-13T22:21:49.644Z,-61
2018-12-13T22:22:46.750Z,-61
2018-12-13T22:23:43.451Z,-61
2018-12-13T22:24:50.354Z,-61
2018-12-13T22:25:48.694Z,-61
2018-12-13T22:26:45.512Z,-60
2018-12-13T22:27:51.582Z,-60
2018-12-13T22:28:53.983Z,-61
2018-12-13T22:29:56.918Z,-61
2018-12-13T22:30:54.386Z,-61
2018-12-13T22:31:52.190Z,-61
2018-12-13T22:32:49.651Z,-61
2018-12-13T22:33:48.271Z,-61
2018-12-13T22:34:48.311Z,-61
2018-12-13T22:35:46.146Z,-60
2018-12-13T22:36:44.228Z,-63
2018-12-13T22:37:42.800Z,-62
2018-12-13T22:38:39.424Z,-61
2018-12-13T22:39:37.454Z,-61
2018-12-13T22:40:34.674Z,-61
2018-12-13T22:41:32.603Z,-61
2018-12-13T22:42:30.603Z,-61
2018-12-13T22:43:31.251Z,-61
2018-12-13T22:44:30.919Z,-61
2018-12-13T22:45:32.466Z,-62
2018-12-13T22:46:29.579Z,-62
2018-12-13T22:47:28.137Z,-63
2018-12-13T22:48:28.244Z,-62
2018-12-13T22:49:28.966Z,-62
2018-12-13T22:50:25.402Z,-62
2018-12-13T22:51:27.435Z,-62
2018-12-13T22:52:28.018Z,-62
2018-12-13T22:53:25.579Z,-62
2018-12-13T22:54:22.837Z,-63
2018-12-13T22:55:22.732Z,-61
2018-12-13T22:56:25.542Z,-61
2018-12-13T22:57:25.323Z,-61
2018-12-13T22:58:21.702Z,-62
2018-12-13T22:59:19.290Z,-61
2018-12-13T23:00:18.945Z,-61
2018-12-13T23:01:18.391Z,-61
2018-12-13T23:02:16.099Z,-61
2018-12-13T23:03:13.386Z,-61
2018-12-13T23:04:11.616Z,-61
2018-12-13T23:05:07.713Z,-61
2018-12-13T23:06:06.590Z,-61
2018-12-13T23:07:10.234Z,-61
2018-12-13T23:08:07.242Z,-61
2018-12-13T23:09:06.712Z,-61
2018-12-13T23:10:09.941Z,-61
2018-12-13T23:11:08.565Z,-60
2018-12-13T23:12:06.450Z,-61
2018-12-13T23:13:05.159Z,-61
2018-12-13T23:14:01.948Z,-61
2018-12-13T23:14:58.234Z,-61
2018-12-13T23:15:49.991Z,-61
2018-12-13T23:16:48.307Z,-62
2018-12-13T23:17:50.076Z,-60
2018-12-13T23:18:46.195Z,-61
2018-12-13T23:19:43.561Z,-61
2018-12-13T23:20:45.760Z,-61
2018-12-13T23:21:45.540Z,-62
2018-12-13T23:22:43.605Z,-61
2018-12-13T23:23:41.503Z,-61
2018-12-13T23:24:49.438Z,-61
2018-12-13T23:25:49.418Z,-62
2018-12-13T23:26:48.180Z,-61
2018-12-13T23:27:46.536Z,-61
2018-12-13T23:28:44.519Z,-61
2018-12-13T23:29:40.674Z,-61
2018-12-13T23:30:38.223Z,-61
2018-12-13T23:31:42.852Z,-61
2018-12-13T23:32:38.971Z,-61
2018-12-13T23:33:35.607Z,-61
2018-12-13T23:34:33.565Z,-62
2018-12-13T23:35:31.237Z,-62
2018-12-13T23:36:28.813Z,-62
2018-12-13T23:37:29.780Z,-62
2018-12-13T23:38:28.535Z,-62
2018-12-13T23:39:29.526Z,-62
2018-12-13T23:40:27.147Z,-62
2018-12-13T23:41:23.092Z,-63
2018-12-13T23:42:23.146Z,-62
2018-12-13T23:43:20.343Z,-61
2018-12-13T23:44:20.688Z,-61
2018-12-13T23:45:21.333Z,-61
2018-12-13T23:46:19.888Z,-62
2018-12-13T23:47:16.494Z,-60
2018-12-13T23:48:14.436Z,-60
2018-12-13T23:49:11.096Z,-61
2018-12-13T23:50:07.147Z,-60
2018-12-13T23:51:08.254Z,-60
2018-12-13T23:52:07.954Z,-61
2018-12-13T23:53:03.713Z,-60
2018-12-13T23:54:02.843Z,-61
2018-12-13T23:55:06.857Z,-61
2018-12-13T23:56:09.075Z,-61
2018-12-13T23:57:12.993Z,-61
2018-12-13T23:58:15.124Z,-61
2018-12-13T23:59:12.045Z,-62
